createdAt,value
2022-08-16T00:06:29.697Z,9.45
2022-08-16T00:17:05.988Z,9.95
2022-08-16T00:26:57.630Z,9.38
2022-08-16T00:37:03.564Z,10.85
2022-08-16T00:47:12.963Z,12.20
2022-08-16T01:07:20.828Z,12.30
2022-08-16T01:17:28.048Z,12.15
2022-08-16T01:27:45.974Z,11.70
2022-08-16T01:37:54.293Z,11.60
2022-08-16T01:47:58.999Z,11.00
2022-08-16T01:58:02.873Z,12.50
2022-08-16T02:08:07.725Z,15.30
2022-08-16T02:18:31.111Z,26.00
2022-08-16T02:28:38.126Z,32.78
2022-08-16T02:38:48.294Z,32.67
2022-08-16T02:48:54.755Z,50.17
2022-08-16T02:59:11.477Z,45.33
2022-08-16T03:09:19.161Z,51.25
2022-08-16T03:19:22.857Z,56.50
2022-08-16T03:29:30.318Z,43.50
2022-08-16T03:39:34.322Z,43.10
2022-08-16T03:49:52.001Z,41.60
2022-08-16T03:59:55.800Z,48.75
2022-08-16T04:10:00.381Z,46.92
2022-08-16T04:20:33.870Z,52.78
2022-08-16T04:30:40.936Z,49.00
2022-08-16T04:40:44.358Z,48.80
2022-08-16T04:50:52.711Z,52.42
2022-08-16T05:00:55.768Z,39.28
2022-08-16T05:11:05.371Z,40.65
2022-08-16T05:21:11.343Z,38.08
2022-08-16T05:31:17.446Z,34.90
2022-08-16T05:41:20.619Z,30.95
2022-08-16T05:51:37.609Z,25.42
2022-08-16T06:01:45.016Z,25.83
2022-08-16T06:11:49.653Z,34.92
2022-08-16T06:21:54.911Z,25.40
2022-08-16T06:32:00.517Z,24.23
2022-08-16T06:42:04.266Z,29.20
2022-08-16T06:52:55.483Z,23.70
2022-08-16T07:02:34.561Z,25.95
2022-08-16T07:12:47.401Z,22.45
2022-08-16T07:23:02.866Z,14.57
2022-08-16T07:33:51.523Z,16.42
2022-08-16T07:43:41.604Z,15.73
2022-08-16T07:54:04.135Z,12.18
2022-08-16T08:04:14.272Z,12.98
2022-08-16T08:14:29.725Z,10.20
2022-08-16T08:24:34.991Z,15.07
2022-08-16T08:34:41.284Z,13.35
2022-08-16T08:44:49.492Z,17.67
2022-08-16T08:54:54.069Z,11.77
2022-08-16T09:04:57.292Z,15.00
2022-08-16T09:15:02.296Z,13.80
2022-08-16T09:25:09.944Z,13.75
2022-08-16T09:35:16.178Z,19.17
2022-08-16T09:45:19.372Z,16.05
2022-08-16T09:55:26.776Z,19.70
2022-08-16T10:05:37.479Z,16.30
2022-08-16T10:15:44.495Z,17.90
2022-08-16T10:36:38.771Z,15.05
2022-08-16T10:46:43.325Z,10.02
2022-08-16T10:56:55.523Z,11.05
2022-08-16T11:07:07.982Z,7.38
2022-08-16T11:17:13.732Z,8.98
2022-08-16T11:27:23.258Z,9.60
2022-08-16T11:38:04.494Z,22.88
2022-08-16T11:47:51.734Z,34.90
2022-08-16T11:57:57.407Z,66.95
2022-08-16T12:08:01.273Z,68.45
2022-08-16T12:18:10.836Z,70.25
2022-08-16T12:28:36.857Z,68.70
2022-08-16T12:38:48.984Z,64.72
2022-08-16T12:48:58.545Z,79.18
2022-08-16T12:59:09.581Z,68.55
2022-08-16T13:09:42.085Z,74.13
2022-08-16T13:30:35.691Z,65.28
2022-08-16T13:40:35.992Z,84.70
2022-08-16T13:50:51.453Z,92.10
2022-08-16T14:00:56.652Z,80.15
2022-08-16T14:11:00.689Z,72.53
2022-08-16T14:21:05.467Z,60.17
2022-08-16T14:31:11.527Z,61.28
2022-08-16T14:41:16.865Z,59.70
2022-08-16T14:51:20.897Z,53.47
2022-08-16T15:01:57.623Z,46.80
2022-08-16T15:11:50.448Z,45.35
2022-08-16T15:21:55.020Z,43.75
2022-08-16T15:32:00.993Z,51.33
2022-08-16T15:42:11.209Z,41.65
2022-08-16T15:52:20.686Z,50.80
2022-08-16T16:02:31.394Z,46.03
2022-08-16T16:12:53.996Z,47.47
2022-08-16T16:23:01.251Z,49.70
2022-08-16T16:33:04.440Z,57.38
2022-08-16T16:43:09.477Z,51.78
2022-08-16T16:53:18.141Z,57.72
2022-08-16T17:03:29.120Z,55.75
2022-08-16T17:13:33.105Z,56.88
2022-08-16T17:23:59.134Z,70.03
2022-08-16T17:34:01.187Z,71.75
2022-08-16T17:44:25.698Z,56.33
2022-08-16T17:54:30.769Z,53.97
2022-08-16T18:04:48.451Z,52.20
2022-08-16T18:14:54.918Z,55.60
2022-08-16T18:25:05.570Z,58.15
2022-08-16T18:35:09.273Z,49.70
2022-08-16T18:45:13.825Z,43.25
2022-08-16T18:55:16.961Z,47.05
2022-08-16T19:05:24.573Z,42.53
2022-08-16T19:15:29.233Z,38.92
2022-08-16T19:25:46.409Z,38.92
2022-08-16T19:35:51.593Z,38.00
2022-08-16T19:45:56.088Z,29.33
2022-08-16T19:55:59.104Z,28.55
2022-08-16T20:06:03.452Z,37.33
2022-08-16T20:16:06.763Z,38.33
2022-08-16T20:26:11.305Z,56.58
2022-08-16T20:36:16.021Z,69.30
2022-08-16T20:46:21.629Z,79.03
2022-08-16T20:56:24.877Z,81.22
2022-08-16T21:06:29.774Z,85.78
2022-08-16T21:16:33.440Z,103.40
2022-08-16T21:26:39.033Z,112.38
2022-08-16T21:36:42.480Z,114.35
2022-08-16T21:46:47.596Z,126.65
2022-08-16T21:56:51.591Z,118.05
2022-08-16T22:06:56.114Z,115.80
2022-08-16T22:16:59.121Z,120.47
2022-08-16T22:27:22.337Z,117.85
2022-08-16T22:38:50.243Z,113.50
2022-08-16T22:48:08.131Z,120.30
2022-08-16T22:58:14.101Z,128.50
2022-08-16T23:08:32.318Z,126.50
2022-08-16T23:18:42.994Z,136.30
2022-08-16T23:28:47.583Z,139.52
2022-08-16T23:38:50.644Z,144.93
2022-08-16T23:49:57.380Z,149.10
2022-08-16T23:59:18.463Z,170.40
